No particular awareness of the weather is required.    There are no Weather-warnings
 Banner
iom-flag.gif  iom-flag.gif


Ballaugh webcam more information Ballaugh webcam


Thunder radar more information blitzortung!


Rain radar more information rain snow radar


Visit our other weather sites:

Template documentation
and downloads

And another site



Nearby METAR Reports

   
EGNS - Isle Of Man/Rona, United Kingdom
Distance from station: SSW 16 mi
Updated: 21-01-2021 09:50
Mostly Cloudy  
Mostly Cloudy  
   Wind: West 26.5 mph
Wind: West 26.5 mph
Temperature: 5°C
Wind Chill: -1°C
Dew Point: 2°C
Humidity: 81%
Barometer: 977 hPa
Clouds: Mostly Cloudy
Visibility: More than 6 mi
Cloud details: Few Clouds 1300 ft,
Mostly Cloudy 1800 ft
EGNS 210950Z 28023KT 9999 FEW013 BKN018 05/02 Q0977 NOSIG
EGAC - Belfast Harbour, United Kingdom
Distance from station: WNW 57 mi
Updated: 21-01-2021 09:50
Partly Cloudy  
Partly Cloudy  
   Wind: West 8.1 mph
Wind: West 8.1 mph
Temperature: 3°C
Wind Chill: -1°C
Dew Point: 2°C
Humidity: 93%
Barometer: 978 hPa
Clouds: Partly Cloudy
Visibility: More than 6 mi
Cloud details: Partly Cloudy 2100 ft
EGAC 210950Z AUTO 26007KT 210V300 9999 SCT021/// 03/02 Q0978
EGAA - Belfast/Aldergro, United Kingdom
Distance from station: WNW 71 mi
Updated: 21-01-2021 09:50
Partly Cloudy  
Partly Cloudy  
   Wind: West 11.5 mph
Wind: West 11.5 mph
Temperature: 3°C
Wind Chill: -1°C
Dew Point: 2°C
Humidity: 93%
Barometer: 978 hPa
Clouds: Partly Cloudy
Visibility: More than 6 mi
Cloud details: Few Clouds 900 ft,
Partly Cloudy 1500 ft
EGAA 210950Z 27010KT 9999 FEW009 SCT015 03/02 Q0978
EGNH - Blackpool Airpor, United Kingdom
Distance from station: ESE 73 mi
Updated: 21-01-2021 09:50
Light Rain, Mostly Cloudy  
Light Rain, Mostly Cloudy  
   Wind: West 33.4 mph
Wind: West 33.4 mph
Temperature: 5°C
Wind Chill: -2°C
Dew Point: 4°C
Humidity: 93%
Barometer: 977 hPa
Clouds: Mostly Cloudy
Visibility: 6 mi
Cloud details: Few Clouds 400 ft,
Partly Cloudy 900 ft,
Mostly Cloudy 2100 ft
EGNH 210950Z 27029KT 9000 -RA FEW004 SCT009 BKN021 05/04 Q0977
EGOV - Valley Raf, United Kingdom
Distance from station: S 73 mi
Updated: 21-01-2021 09:50
Mostly Cloudy  
Mostly Cloudy  
   Wind: West 25.3 mph<br />Gust to 25.3 mph
Wind: West 25.3 mph
Gust to 25.3 mph
Temperature: 5°C
Wind Chill: -1°C
Dew Point: 3°C
Humidity: 87%
Barometer: 981 hPa
Clouds: Mostly Cloudy
Visibility: More than 6 mi
Cloud details: Mostly Cloudy 1800 ft
EGOV 210950Z 27022G34KT 9999 BKN018 05/03 Q0981 TEMPO FEW018 RMK WHT TEMPO BLU
EGPK - Prestwick(Civ/Na, United Kingdom
Distance from station: N 82 mi
Updated: 21-01-2021 09:50
Partly Cloudy  
Partly Cloudy  
   Wind: WNW 23 mph
Wind: WNW 23 mph
Temperature: 5°C
Wind Chill: -1°C
Dew Point: 2°C
Humidity: 81%
Barometer: 973 hPa
Clouds: Partly Cloudy
Visibility: More than 6 mi
Cloud details: Partly Cloudy 2000 ft
EGPK 210950Z 30020KT 9999 SCT020 05/02 Q0973
EIDW - Dublin Airport, Ireland
Distance from station: SW 93 mi
Updated: 21-01-2021 10:00
Mostly Cloudy  
Mostly Cloudy  
   Wind: West 23 mph
Wind: West 23 mph
Temperature: 3°C
Wind Chill: -3°C
Dew Point: 1°C
Humidity: 87%
Barometer: 981 hPa
Clouds: Mostly Cloudy
Visibility: More than 6 mi
Cloud details: Few Clouds 900 ft,
Mostly Cloudy 1000 ft,
Mostly Cloudy 1300 ft
EIDW 211000Z 27020KT 9999 FEW009 BKN010 BKN013 03/01 Q0981 NOSIG
EGGP - Liverpool Airpor, United Kingdom
Distance from station: SE 98 mi
Updated: 21-01-2021 09:50
Overcast  
Overcast  
   Wind: WSW 23 mph
Wind: WSW 23 mph
Temperature: 5°C
Wind Chill: -1°C
Dew Point: 2°C
Humidity: 81%
Barometer: 979 hPa
Clouds: Overcast
Visibility: More than 6 mi
Cloud details: Mostly Cloudy 2100 ft,
Overcast 2700 ft
EGGP 210950Z AUTO 25020KT 9999 BKN021/// OVC027/// 05/02 Q0979
EGPF - Glasgow Airport, United Kingdom
Distance from station: N 107 mi
Updated: 21-01-2021 09:50
Clear  
Clear  
   Wind: West 13.8 mph
Wind: West 13.8 mph
Temperature: 3°C
Wind Chill: -2°C
Dew Point: 1°C
Humidity: 87%
Barometer: 972 hPa
Clouds: Clear
Visibility: More than 6 mi
Cloud details: Clear ft
EGPF 210950Z AUTO 26012KT 9999 NCD 03/01 Q0972
EGCC - Manchester Intl, United Kingdom
Distance from station: SE 114 mi
Updated: 21-01-2021 09:50
Overcast  
Overcast  
   Wind: SW 12.7 mph
Wind: SW 12.7 mph
Temperature: 3°C
Wind Chill: -2°C
Dew Point: 0°C
Humidity: 81%
Barometer: 979 hPa
Clouds: Overcast
Visibility: More than 6 mi
Cloud details: Overcast 2500 ft
EGCC 210950Z AUTO 22011KT 9999 OVC025 03/M00 Q0979 TEMPO 8000 RA
EGNM - Leeds And Bradfo, United Kingdom
Distance from station: ESE 122 mi
Updated: 20-01-2021 15:50
NOT Current
Light Rain, Mostly Cloudy  
Light Rain, Mostly Cloudy  
   Wind: South 15 mph
Wind: South 15 mph
Temperature: 9°C
Wind Chill: 6°C
Dew Point: 8°C
Humidity: 94%
Barometer: 975 hPa
Clouds: Mostly Cloudy
Visibility: More than 6 mi
Cloud details: Partly Cloudy 1300 ft,
Mostly Cloudy 1600 ft
EGNM 201550Z 18013KT 9999 -RA SCT013 BKN016 09/08 Q0975
 

Script developed by  Saratoga-weather.org Adapted for the template by  Weerstation Leuven

You find our weather info also at:

UK Metoffice

WeatherCloud

WeatherlinkIP

Equipment we use:

Weather-station
Davis VP2

Weather-program
Weather Display

Weather-server
My Computer

Provider
Fasthosts

Davis VP2

Weather Display

My Computer

Fasthosts

 Banner1
Flag Counter